Time;durP1;ratioP1;P1;durP2;ratioP2;P2;SDS_P1;SDS_P2;PMS_P1;PMS_P2;Temp;Humidity;BMP_temperature;BMP_pressure;BME280_temperature;BME280_humidity;BME280_pressure;Samples;Min_cycle;Max_cycle;Signal;HPM_P1;HPM_P2
2023/04/21 00:01:59;;;;;;;29.45;18.42;;;;;;;7.63;100.00;101428.91;5031507;28;20103;-51
2023/04/21 00:04:28;;;;;;;29.27;17.95;;;;;;;7.56;100.00;101423.91;5032466;28;20053;-52
2023/04/21 00:06:57;;;;;;;30.02;19.27;;;;;;;7.62;100.00;101417.56;5032461;28;20069;-49
2023/04/21 00:09:25;;;;;;;29.70;18.85;;;;;;;7.66;100.00;101420.91;5032432;28;20128;-52
2023/04/21 00:11:53;;;;;;;29.33;18.42;;;;;;;7.65;100.00;101420.06;5032343;28;20124;-53
2023/04/21 00:14:21;;;;;;;29.90;18.80;;;;;;;7.64;100.00;101412.28;5032681;28;20044;-52
2023/04/21 00:16:51;;;;;;;31.67;20.00;;;;;;;7.63;100.00;101414.03;5036236;28;20057;-53
2023/04/21 00:19:19;;;;;;;28.20;18.67;;;;;;;7.61;100.00;101406.25;5036429;28;20069;-50
2023/04/21 00:21:48;;;;;;;29.25;18.80;;;;;;;7.63;100.00;101411.41;5034688;28;20072;-54
2023/04/21 00:24:16;;;;;;;32.72;18.95;;;;;;;7.60;100.00;101401.91;5032498;28;20556;-52
2023/04/21 00:26:44;;;;;;;31.55;19.20;;;;;;;7.54;100.00;101399.59;5034354;28;20069;-52
2023/04/21 00:29:12;;;;;;;31.90;19.92;;;;;;;7.57;100.00;101393.38;5035847;28;20053;-50
2023/04/21 00:31:40;;;;;;;33.35;19.75;;;;;;;7.52;100.00;101390.09;5036045;28;20045;-52
2023/04/21 00:34:10;;;;;;;30.05;19.33;;;;;;;7.55;100.00;101385.59;5036431;28;20427;-53
2023/04/21 00:36:38;;;;;;;34.42;20.60;;;;;;;7.56;100.00;101386.44;5035990;28;20063;-52
2023/04/21 00:39:06;;;;;;;32.05;19.77;;;;;;;7.58;100.00;101379.34;5033627;28;20051;-52
2023/04/21 00:41:35;;;;;;;34.08;19.83;;;;;;;7.61;100.00;101374.00;5032427;28;20145;-51
2023/04/21 00:44:05;;;;;;;30.48;19.10;;;;;;;7.52;100.00;101380.47;5031142;28;20112;-53
2023/04/21 00:46:33;;;;;;;31.33;18.80;;;;;;;7.52;100.00;101377.00;5035643;28;20045;-54
2023/04/21 00:49:04;;;;;;;30.98;19.17;;;;;;;7.48;100.00;101368.44;5035366;28;20057;-53
2023/04/21 00:51:36;;;;;;;33.83;20.63;;;;;;;7.53;100.00;101370.88;5035705;28;20049;-52
2023/04/21 00:54:06;;;;;;;32.20;20.02;;;;;;;7.49;100.00;101362.28;5035896;28;20057;-52
2023/04/21 00:56:35;;;;;;;35.30;21.38;;;;;;;7.50;100.00;101358.75;5035656;28;20049;-52
2023/04/21 00:59:04;;;;;;;35.88;21.02;;;;;;;7.43;100.00;101349.44;5035457;28;20457;-53
2023/04/21 01:01:33;;;;;;;35.15;21.10;;;;;;;7.45;100.00;101355.50;5035806;28;20568;-52
2023/04/21 01:04:02;;;;;;;35.35;21.08;;;;;;;7.49;100.00;101356.22;5035530;28;20057;-52
2023/04/21 01:06:32;;;;;;;33.78;20.27;;;;;;;7.40;100.00;101339.13;5035629;28;20041;-52
2023/04/21 01:09:03;;;;;;;37.75;22.77;;;;;;;7.47;100.00;101345.78;5032173;28;20063;-49
2023/04/21 01:11:31;;;;;;;35.05;21.33;;;;;;;7.52;100.00;101342.97;5032533;28;20103;-52
2023/04/21 01:14:00;;;;;;;35.72;22.08;;;;;;;7.55;100.00;101337.59;5035357;28;20046;-50
2023/04/21 01:16:32;;;;;;;39.33;22.80;;;;;;;7.52;100.00;101333.34;5035255;28;20393;-53
2023/04/21 01:19:03;;;;;;;36.53;22.20;;;;;;;7.59;100.00;101334.81;5031070;28;20190;-52
2023/04/21 01:21:39;;;;;;;31.15;20.95;;;;;;;7.63;100.00;101338.09;5031765;28;20060;-50
2023/04/21 01:24:07;;;;;;;36.63;21.98;;;;;;;7.65;100.00;101338.03;5035279;28;20041;-52
2023/04/21 01:26:35;;;;;;;35.90;22.30;;;;;;;7.71;100.00;101332.53;5034163;28;20566;-54
2023/04/21 01:29:03;;;;;;;36.33;22.52;;;;;;;7.74;100.00;101328.03;5035008;28;20084;-54
2023/04/21 01:31:32;;;;;;;36.65;21.45;;;;;;;7.75;100.00;101329.69;5032696;28;20056;-52
2023/04/21 01:34:04;;;;;;;35.55;22.10;;;;;;;7.85;100.00;101339.75;5029552;28;20128;-53
2023/04/21 01:36:32;;;;;;;35.73;21.73;;;;;;;7.83;100.00;101339.84;5030390;28;20060;-52
2023/04/21 01:39:01;;;;;;;33.22;20.90;;;;;;;7.83;100.00;101336.38;5033321;28;20072;-53
2023/04/21 01:41:29;;;;;;;33.35;21.42;;;;;;;7.82;100.00;101338.13;5031170;28;20049;-53
2023/04/21 01:44:00;;;;;;;36.45;21.80;;;;;;;7.80;100.00;101342.59;5029169;28;20045;-52
2023/04/21 01:46:28;;;;;;;36.08;22.77;;;;;;;7.71;100.00;101343.00;5030501;28;20073;-56
2023/04/21 01:48:56;;;;;;;34.40;22.20;;;;;;;7.77;100.00;101340.09;5032997;28;20531;-51
2023/04/21 01:51:25;;;;;;;35.45;21.95;;;;;;;7.79;100.00;101346.13;5034667;28;20111;-52
2023/04/21 01:53:54;;;;;;;39.28;22.45;;;;;;;7.78;100.00;101336.56;5034593;28;20049;-53
2023/04/21 01:56:23;;;;;;;34.83;21.92;;;;;;;7.73;100.00;101343.78;5034524;28;20049;-52
2023/04/21 01:58:52;;;;;;;32.47;20.30;;;;;;;7.73;100.00;101331.56;5034306;28;20089;-54
2023/04/21 02:01:20;;;;;;;35.17;22.42;;;;;;;7.71;100.00;101338.63;5034299;28;20454;-52
2023/04/21 02:03:48;;;;;;;33.00;21.10;;;;;;;7.66;100.00;101324.88;5029401;28;20054;-52
2023/04/21 02:06:16;;;;;;;30.77;19.55;;;;;;;7.64;100.00;101324.09;5031973;28;20045;-52
2023/04/21 02:08:44;;;;;;;33.42;20.52;;;;;;;7.70;100.00;101323.84;5034568;28;20049;-52
2023/04/21 02:11:12;;;;;;;32.30;20.80;;;;;;;7.70;100.00;101323.84;5034302;28;20049;-53
2023/04/21 02:13:42;;;;;;;34.85;21.80;;;;;;;7.71;100.00;101327.31;5032757;28;20496;-53
2023/04/21 02:16:13;;;;;;;31.10;20.30;;;;;;;7.78;100.00;101318.25;5030780;28;20057;-54
2023/04/21 02:18:43;;;;;;;32.95;21.17;;;;;;;7.70;100.00;101328.22;5031641;28;20042;-54
2023/04/21 02:21:11;;;;;;;31.20;20.80;;;;;;;7.70;100.00;101322.97;5034260;28;20053;-49
2023/04/21 02:23:39;;;;;;;31.63;21.05;;;;;;;7.73;100.00;101321.09;5034514;28;20455;-51
2023/04/21 02:26:08;;;;;;;31.98;20.92;;;;;;;7.71;100.00;101322.06;5032831;28;20053;-52
2023/04/21 02:28:39;;;;;;;30.60;20.23;;;;;;;7.68;100.00;101327.44;5034204;28;20489;-53
2023/04/21 02:31:08;;;;;;;31.08;19.70;;;;;;;7.63;100.00;101313.72;5033978;28;20053;-53
2023/04/21 02:33:36;;;;;;;34.30;20.75;;;;;;;7.66;100.00;101311.78;5033883;28;20451;-54
2023/04/21 02:36:05;;;;;;;31.90;20.40;;;;;;;7.65;100.00;101307.50;5033687;28;20103;-54
2023/04/21 02:38:34;;;;;;;31.38;20.10;;;;;;;7.66;100.00;101301.31;5031931;28;20050;-52
2023/04/21 02:41:02;;;;;;;31.92;20.92;;;;;;;7.63;100.00;101301.47;5033300;28;20045;-50
2023/04/21 02:43:30;;;;;;;30.23;20.25;;;;;;;7.64;100.00;101307.56;5032665;28;20060;-53
2023/04/21 02:46:00;;;;;;;31.88;20.05;;;;;;;7.65;100.00;101290.91;5029498;28;20066;-53
2023/04/21 02:48:29;;;;;;;28.10;19.05;;;;;;;7.65;100.00;101299.63;5031861;28;20111;-53
2023/04/21 02:50:57;;;;;;;30.42;20.95;;;;;;;7.73;100.00;101312.34;5033438;28;20049;-52
2023/04/21 02:53:28;;;;;;;31.67;21.98;;;;;;;7.67;100.00;101312.66;5029696;28;20124;-51
2023/04/21 02:56:01;;;;;;;30.73;21.27;;;;;;;7.69;100.00;101316.03;5030255;28;20045;-53
2023/04/21 02:58:29;;;;;;;33.58;21.40;;;;;;;7.67;100.00;101304.78;5030684;28;20037;-50
2023/04/21 03:00:57;;;;;;;32.67;21.88;;;;;;;7.60;100.00;101301.59;5032908;28;20120;-55
2023/04/21 03:03:25;;;;;;;34.35;23.88;;;;;;;7.65;100.00;101302.25;5033258;28;20045;-53
2023/04/21 03:05:57;;;;;;;31.02;20.60;;;;;;;7.60;100.00;101297.22;5033231;28;20081;-52
2023/04/21 03:08:26;;;;;;;34.88;23.52;;;;;;;7.61;100.00;101296.28;5033286;28;20104;-51
2023/04/21 03:10:54;;;;;;;34.65;22.58;;;;;;;7.64;100.00;101299.72;5033085;28;20068;-53
2023/04/21 03:13:24;;;;;;;34.25;23.00;;;;;;;7.63;100.00;101298.00;5033126;28;20045;-53
2023/04/21 03:15:53;;;;;;;33.63;23.55;;;;;;;7.65;100.00;101299.63;5033171;28;20048;-58
2023/04/21 03:18:21;;;;;;;32.70;21.58;;;;;;;7.61;100.00;101296.28;5033025;28;20496;-58
2023/04/21 03:20:49;;;;;;;36.25;23.73;;;;;;;7.65;100.00;101294.41;5032297;28;20531;-58
2023/04/21 03:23:18;;;;;;;35.35;22.77;;;;;;;7.65;100.00;101298.75;5029909;28;20045;-58
2023/04/21 03:25:46;;;;;;;33.22;22.95;;;;;;;7.72;100.00;101300.22;5029507;28;20070;-58
2023/04/21 03:28:15;;;;;;;34.75;24.05;;;;;;;7.70;100.00;101297.66;5029576;28;20049;-59
2023/04/21 03:30:43;;;;;;;35.75;23.65;;;;;;;7.67;100.00;101282.06;5031798;28;20046;-58
2023/04/21 03:33:12;;;;;;;36.30;23.58;;;;;;;7.74;100.00;101285.25;5029979;28;20496;-59
2023/04/21 03:35:40;;;;;;;37.03;24.83;;;;;;;7.66;100.00;101276.91;5028043;28;20401;-58
2023/04/21 03:38:08;;;;;;;37.40;24.83;;;;;;;7.61;100.00;101283.22;5029136;28;20041;-58
2023/04/21 03:40:40;;;;;;;37.45;24.33;;;;;;;7.55;100.00;101278.28;5031232;28;20047;-59
2023/04/21 03:43:08;;;;;;;38.67;25.25;;;;;;;7.54;100.00;101284.41;5032488;28;20544;-58
2023/04/21 03:45:36;;;;;;;37.03;25.30;;;;;;;7.59;100.00;101292.91;5032708;28;20133;-59
2023/04/21 03:48:05;;;;;;;39.05;25.38;;;;;;;7.61;100.00;101288.44;5031732;28;20535;-59
2023/04/21 03:50:36;;;;;;;37.63;24.77;;;;;;;7.65;100.00;101288.28;5027154;28;20041;-58
2023/04/21 03:53:04;;;;;;;37.22;25.42;;;;;;;7.65;100.00;101283.06;5028644;28;20079;-59
2023/04/21 03:55:32;;;;;;;41.00;25.88;;;;;;;7.71;100.00;101286.25;5029049;28;20140;-59
2023/04/21 03:58:01;;;;;;;39.72;24.98;;;;;;;7.70;100.00;101278.47;5028961;28;20053;-58
2023/04/21 04:00:30;;;;;;;40.47;26.65;;;;;;;7.72;100.00;101285.34;5028538;28;20560;-59
2023/04/21 04:03:00;;;;;;;38.67;26.38;;;;;;;7.74;100.00;101275.66;5029209;28;20050;-59
2023/04/21 04:05:29;;;;;;;40.40;25.55;;;;;;;7.72;100.00;101280.09;5027404;28;20069;-58
2023/04/21 04:07:57;;;;;;;41.60;27.70;;;;;;;7.73;100.00;101268.72;5028771;28;20523;-59
2023/04/21 04:10:25;;;;;;;41.22;26.45;;;;;;;7.74;100.00;101285.25;5029349;28;20691;-58
2023/04/21 04:12:56;;;;;;;40.15;25.95;;;;;;;7.70;100.00;101278.47;5028874;28;20053;-58
2023/04/21 04:15:25;;;;;;;41.53;27.23;;;;;;;7.73;100.00;101286.16;5032007;28;20061;-58
2023/04/21 04:17:54;;;;;;;41.80;26.25;;;;;;;7.74;100.00;101285.25;5032046;28;20558;-59
2023/04/21 04:20:22;;;;;;;40.40;26.30;;;;;;;7.81;100.00;101289.28;5029552;28;20493;-59
2023/04/21 04:22:50;;;;;;;44.40;26.00;;;;;;;7.76;100.00;101283.44;5028361;28;20037;-59
2023/04/21 04:25:18;;;;;;;41.55;25.88;;;;;;;7.70;100.00;101275.84;5029499;28;20049;-59
2023/04/21 04:27:48;;;;;;;38.97;26.92;;;;;;;7.69;100.00;101275.00;5029404;28;20091;-58
2023/04/21 04:30:16;;;;;;;41.53;26.52;;;;;;;7.71;100.00;101270.53;5031098;28;20425;-58
2023/04/21 04:32:46;;;;;;;38.08;26.17;;;;;;;7.73;100.00;101265.22;5032465;28;20045;-58
2023/04/21 04:35:15;;;;;;;44.60;27.60;;;;;;;7.68;100.00;101264.63;5028066;28;20456;-58
2023/04/21 04:37:44;;;;;;;41.72;27.10;;;;;;;7.66;100.00;101255.97;5028519;28;20104;-58
2023/04/21 04:40:13;;;;;;;41.92;27.90;;;;;;;7.71;100.00;101267.09;5031489;28;20049;-58
2023/04/21 04:42:41;;;;;;;43.65;27.98;;;;;;;7.73;100.00;101276.56;5028747;28;20084;-59
2023/04/21 04:45:10;;;;;;;42.63;27.92;;;;;;;7.72;100.00;101266.16;5030287;28;20072;-59
2023/04/21 04:47:38;;;;;;;43.05;27.55;;;;;;;7.65;100.00;101251.66;5031935;28;20125;-59
2023/04/21 04:50:08;;;;;;;43.65;27.45;;;;;;;7.66;100.00;101261.19;5031912;28;20049;-59
2023/04/21 04:52:36;;;;;;;43.58;28.42;;;;;;;7.69;100.00;101267.16;5031278;28;20060;-59
2023/04/21 04:55:05;;;;;;;44.53;28.70;;;;;;;7.69;100.00;101261.06;5028264;28;20455;-59
2023/04/21 04:57:36;;;;;;;40.25;24.77;;;;;;;7.72;100.00;101264.38;5028601;28;20038;-59
2023/04/21 05:00:07;;;;;;;41.67;27.70;;;;;;;7.78;100.00;101268.50;5031091;28;20068;-59
2023/04/21 05:02:35;;;;;;;46.00;29.58;;;;;;;7.77;100.00;101272.00;5035715;28;20049;-59
2023/04/21 05:05:08;;;;;;;43.75;29.23;;;;;;;7.80;100.00;101269.28;5035692;28;20128;-59
2023/04/21 05:07:36;;;;;;;41.13;28.15;;;;;;;7.81;100.00;101276.19;5035466;28;20496;-59
2023/04/21 05:10:05;;;;;;;41.58;26.95;;;;;;;7.78;100.00;101268.50;5035459;28;20437;-59
2023/04/21 05:12:33;;;;;;;41.60;27.90;;;;;;;7.78;100.00;101258.00;5033340;28;20230;-59
2023/04/21 05:15:01;;;;;;;41.13;26.50;;;;;;;7.85;100.00;101264.66;5031647;28;20053;-59
2023/04/21 05:17:29;;;;;;;42.55;27.10;;;;;;;7.90;100.00;101272.31;5035134;28;20049;-59
2023/04/21 05:19:58;;;;;;;44.30;27.10;;;;;;;7.87;100.00;101280.31;5035044;28;20045;-59
2023/04/21 05:22:27;;;;;;;40.85;27.00;;;;;;;7.82;100.00;101290.16;5035134;28;20037;-59
2023/04/21 05:24:56;;;;;;;43.78;27.70;;;;;;;7.84;100.00;101290.91;5032542;28;20152;-60
2023/04/21 05:27:24;;;;;;;43.13;27.85;;;;;;;7.89;100.00;101296.78;5031723;28;20091;-59
2023/04/21 05:29:53;;;;;;;44.17;28.38;;;;;;;7.86;100.00;101295.16;5034782;28;20081;-59
2023/04/21 05:32:21;;;;;;;37.88;25.05;;;;;;;7.94;100.00;101292.19;5035244;28;20053;-59
2023/04/21 05:34:50;;;;;;;39.53;26.00;;;;;;;7.87;100.00;101302.09;5034947;28;20055;-59
2023/04/21 05:37:18;;;;;;;41.67;27.05;;;;;;;7.84;100.00;101304.88;5034979;28;20045;-59
2023/04/21 05:39:47;;;;;;;43.80;27.52;;;;;;;7.86;100.00;101300.41;5032128;28;20049;-59
2023/04/21 05:42:17;;;;;;;39.58;26.40;;;;;;;7.84;100.00;101301.38;5031762;28;20412;-59
2023/04/21 05:44:47;;;;;;;39.80;26.80;;;;;;;7.86;100.00;101304.81;5033316;28;20054;-59
2023/04/21 05:47:16;;;;;;;41.38;27.02;;;;;;;7.91;100.00;101306.28;5031758;28;20053;-59
2023/04/21 05:49:48;;;;;;;40.35;25.20;;;;;;;7.94;100.00;101303.50;5028173;28;20053;-59
2023/04/21 05:52:17;;;;;;;40.03;26.63;;;;;;;7.91;100.00;101308.91;5031423;28;20057;-59
2023/04/21 05:54:46;;;;;;;40.13;26.33;;;;;;;7.95;100.00;101305.22;5031268;28;20041;-53
2023/04/21 05:57:16;;;;;;;39.45;25.80;;;;;;;7.94;100.00;101311.38;5032078;28;20053;-55
2023/04/21 05:59:44;;;;;;;37.70;25.90;;;;;;;7.98;100.00;101314.72;5032886;28;20080;-53
2023/04/21 06:02:12;;;;;;;40.10;26.58;;;;;;;8.04;100.00;101303.91;5030218;28;20485;-55
2023/04/21 06:04:41;;;;;;;38.30;25.55;;;;;;;8.04;100.00;101303.09;5033367;28;20049;-53
2023/04/21 06:07:12;;;;;;;36.40;24.73;;;;;;;8.04;100.00;101303.91;5030920;28;20050;-53
2023/04/21 06:09:41;;;;;;;37.30;23.60;;;;;;;8.12;100.00;101299.16;5030500;28;20033;-53
2023/04/21 06:12:10;;;;;;;43.00;26.15;;;;;;;8.07;100.00;101303.81;5030359;28;20403;-54
2023/04/21 06:14:38;;;;;;;38.85;25.48;;;;;;;8.11;100.00;101299.25;5030347;28;20053;-54
2023/04/21 06:17:09;;;;;;;42.60;25.50;;;;;;;8.12;100.00;101295.72;5030686;28;20570;-54
2023/04/21 06:19:38;;;;;;;42.60;26.52;;;;;;;8.13;100.00;101302.66;5033236;28;20053;-54
2023/04/21 06:22:08;;;;;;;38.40;24.92;;;;;;;8.18;100.00;101291.94;5030413;28;20056;-54
2023/04/21 06:24:36;;;;;;;40.28;26.33;;;;;;;8.20;100.00;101293.56;5031298;28;20037;-54
2023/04/21 06:27:12;;;;;;;40.38;26.08;;;;;;;8.28;100.00;101291.44;5034055;28;20485;-54
2023/04/21 06:29:43;;;;;;;39.47;26.20;;;;;;;8.37;100.00;101290.16;5034150;28;20049;-53
2023/04/21 06:32:11;;;;;;;39.63;26.48;;;;;;;8.36;100.00;101285.81;5033625;28;20068;-52
2023/04/21 06:34:40;;;;;;;39.95;26.88;;;;;;;8.37;100.00;101284.03;5028222;28;20096;-55
2023/04/21 06:37:08;;;;;;;38.03;25.83;;;;;;;8.45;100.00;101284.53;5031738;28;20077;-54
2023/04/21 06:39:36;;;;;;;39.80;26.95;;;;;;;8.57;100.00;101290.97;5033762;28;20523;-60
2023/04/21 06:42:04;;;;;;;43.60;29.00;;;;;;;8.74;100.00;101292.72;5031575;28;20052;-60
2023/04/21 06:44:33;;;;;;;41.80;28.00;;;;;;;8.78;100.00;101289.03;5029398;28;20128;-60
2023/04/21 06:47:01;;;;;;;43.10;28.85;;;;;;;8.91;100.00;101290.09;5033250;28;20075;-60
2023/04/21 06:49:30;;;;;;;39.75;27.23;;;;;;;9.02;100.00;101283.47;5033248;28;20057;-60
2023/04/21 06:51:58;;;;;;;40.15;28.30;;;;;;;9.09;100.00;101283.09;5032102;28;20509;-60
2023/04/21 06:54:26;;;;;;;39.25;27.70;;;;;;;9.18;100.00;101287.00;5033077;28;20123;-60
2023/04/21 06:56:54;;;;;;;40.28;26.92;;;;;;;9.25;100.00;101285.75;5033546;28;20045;-60
2023/04/21 06:59:22;;;;;;;37.22;26.13;;;;;;;9.25;100.00;101283.13;5028547;28;20053;-60
2023/04/21 07:01:52;;;;;;;35.78;25.15;;;;;;;9.26;100.00;101282.19;5028140;28;20049;-60
2023/04/21 07:04:20;;;;;;;38.63;26.90;;;;;;;9.28;100.00;101284.72;5028053;28;20053;-60
2023/04/21 07:06:48;;;;;;;35.53;26.17;;;;;;;9.37;100.00;101283.41;5029406;28;20060;-60
2023/04/21 07:09:16;;;;;;;35.40;25.50;;;;;;;9.34;100.00;101291.44;5032123;28;20037;-60
2023/04/21 07:11:47;;;;;;;41.45;27.17;;;;;;;9.35;100.00;101290.50;5030174;28;20049;-60
2023/04/21 07:14:15;;;;;;;37.58;25.77;;;;;;;9.39;100.00;101299.91;5029996;28;20054;-61
2023/04/21 07:16:43;;;;;;;35.38;25.63;;;;;;;9.39;100.00;101302.53;5028465;28;20417;-56
2023/04/21 07:19:13;;;;;;;38.58;26.40;;;;;;;9.47;100.00;101297.72;5028541;28;20116;-55
2023/04/21 07:21:41;;;;;;;37.30;26.67;;;;;;;9.48;100.00;101288.94;5031362;28;20374;-56
2023/04/21 07:24:09;;;;;;;39.60;28.00;;;;;;;9.51;100.00;101286.13;5032074;28;20042;-56
2023/04/21 07:26:40;;;;;;;36.90;26.80;;;;;;;9.57;100.00;101290.22;5029539;28;20079;-55
2023/04/21 07:29:10;;;;;;;37.97;26.65;;;;;;;9.60;100.00;101285.66;5030419;28;20060;-56
2023/04/21 07:31:38;;;;;;;42.80;27.48;;;;;;;9.63;100.00;101282.84;5030898;28;20064;-56
2023/04/21 07:34:09;;;;;;;37.55;27.05;;;;;;;9.68;100.00;101287.88;5028079;28;20119;-56
2023/04/21 07:36:38;;;;;;;36.38;27.13;;;;;;;9.72;100.00;101291.16;5029177;28;20048;-56
2023/04/21 07:39:06;;;;;;;39.65;27.65;;;;;;;9.69;100.00;101279.03;5029222;28;20336;-56
2023/04/21 07:41:34;;;;;;;36.58;27.25;;;;;;;9.79;100.00;101289.91;5032799;28;20416;-57
2023/04/21 07:44:03;;;;;;;39.47;27.25;;;;;;;9.82;100.00;101298.47;5032953;28;20091;-56
2023/04/21 07:46:31;;;;;;;38.22;27.15;;;;;;;9.85;100.00;101293.97;5030280;28;20115;-56
2023/04/21 07:49:00;;;;;;;35.88;26.75;;;;;;;9.90;100.00;101292.78;5027197;28;20061;-56
2023/04/21 07:51:31;;;;;;;39.35;27.02;;;;;;;9.95;100.00;101293.38;5029115;28;20128;-56
2023/04/21 07:54:00;;;;;;;37.33;27.25;;;;;;;10.00;100.00;101285.25;5029646;28;20069;-56
2023/04/21 07:56:29;;;;;;;35.42;25.83;;;;;;;10.06;100.00;101278.78;5032707;28;20088;-56
2023/04/21 07:58:57;;;;;;;35.17;25.17;;;;;;;10.11;100.00;101282.00;5031270;28;20045;-56
2023/04/21 08:01:25;;;;;;;38.75;26.85;;;;;;;10.18;100.00;101283.34;5032369;28;20045;-56
2023/04/21 08:03:53;;;;;;;36.38;26.17;;;;;;;10.24;100.00;101283.03;5032615;28;20065;-56
2023/04/21 08:06:21;;;;;;;35.67;25.17;;;;;;;10.36;100.00;101284.16;5032470;28;20049;-57
2023/04/21 08:08:53;;;;;;;37.28;26.35;;;;;;;10.37;100.00;101288.44;5031362;28;20042;-57
2023/04/21 08:11:22;;;;;;;37.38;26.65;;;;;;;10.37;100.00;101285.81;5028150;28;20394;-56
2023/04/21 08:13:51;;;;;;;35.58;25.90;;;;;;;10.45;100.00;101290.66;5030947;28;20496;-57
2023/04/21 08:16:19;;;;;;;34.80;25.15;;;;;;;10.50;100.00;101291.22;5032100;28;20057;-57
2023/04/21 08:18:47;;;;;;;35.13;24.88;;;;;;;10.51;100.00;101285.00;5026483;28;20060;-57
2023/04/21 08:21:15;;;;;;;33.83;25.75;;;;;;;10.52;100.00;101281.47;5028733;28;20477;-57
2023/04/21 08:23:43;;;;;;;33.88;25.30;;;;;;;10.62;100.00;101287.03;5029010;28;20562;-57
2023/04/21 08:26:12;;;;;;;36.67;25.88;;;;;;;10.65;100.00;101287.69;5030912;28;20095;-57
2023/04/21 08:28:41;;;;;;;31.60;24.55;;;;;;;10.71;100.00;101283.84;5029437;28;20132;-56
2023/04/21 08:31:09;;;;;;;34.25;24.92;;;;;;;10.70;100.00;101294.47;5028781;28;20046;-57
2023/04/21 08:33:37;;;;;;;33.88;25.17;;;;;;;10.72;100.00;101287.34;5032109;28;20049;-56
2023/04/21 08:36:20;;;;;;;35.42;25.55;;;;;;;10.76;100.00;101289.72;5033093;28;20055;-57
2023/04/21 08:38:56;;;;;;;31.40;23.55;;;;;;;10.91;100.00;101287.13;5036048;28;20381;-55
2023/04/21 08:41:26;;;;;;;34.38;25.83;;;;;;;11.01;100.00;101282.97;5035969;28;20436;-57
2023/04/21 08:43:55;;;;;;;33.92;25.63;;;;;;;11.13;100.00;101282.25;5034633;28;20926;-56
2023/04/21 08:46:24;;;;;;;32.78;25.63;;;;;;;11.27;100.00;101291.94;5032395;28;20500;-61
2023/04/21 08:48:52;;;;;;;37.42;25.17;;;;;;;11.43;100.00;101285.75;5033543;28;20088;-61
2023/04/21 08:51:24;;;;;;;33.13;24.40;;;;;;;11.55;100.00;101290.25;5033598;28;20176;-61
2023/04/21 08:53:54;;;;;;;32.25;24.38;;;;;;;11.67;100.00;101292.13;5030260;28;20508;-61
2023/04/21 08:56:25;;;;;;;29.15;22.88;;;;;;;11.75;100.00;101299.53;5035115;28;20057;-61
2023/04/21 08:58:56;;;;;;;34.88;24.30;;;;;;;11.83;100.00;101289.38;5031810;28;20045;-61
2023/04/21 09:01:24;;;;;;;32.22;24.10;;;;;;;11.82;100.00;101287.66;5030855;28;20089;-61
2023/04/21 09:03:52;;;;;;;31.20;23.90;;;;;;;12.02;100.00;101282.09;5030729;28;20050;-56
2023/04/21 09:06:20;;;;;;;31.58;24.70;;;;;;;12.29;100.00;101282.09;5031754;28;20073;-56
2023/04/21 09:08:55;;;;;;;31.77;24.73;;;;;;;12.42;100.00;101279.50;5031488;28;20195;-57
2023/04/21 09:11:24;;;;;;;29.67;23.92;;;;;;;12.50;100.00;101287.75;5032287;28;20038;-56
2023/04/21 09:13:58;;;;;;;32.83;24.23;;;;;;;12.65;100.00;101289.38;5032006;28;20128;-57
2023/04/21 09:16:31;;;;;;;28.67;22.95;;;;;;;12.65;100.00;101299.94;5032195;28;20400;-57
2023/04/21 09:19:00;;;;;;;29.17;23.65;;;;;;;12.66;100.00;101285.78;5030141;28;20060;-57
2023/04/21 09:21:30;;;;;;;30.15;22.90;;;;;;;12.75;100.00;101292.25;5032367;28;20049;-57
2023/04/21 09:24:05;;;;;;;30.80;22.92;;;;;;;12.72;100.00;101295.09;5034963;28;20128;-57
2023/04/21 09:26:33;;;;;;;29.95;23.90;;;;;;;12.85;100.00;101279.25;5034995;28;20102;-57
2023/04/21 09:29:06;;;;;;;30.10;23.83;;;;;;;13.00;100.00;101282.66;5032059;28;20045;-56
2023/04/21 09:31:35;;;;;;;29.17;23.35;;;;;;;13.10;100.00;101277.56;5031554;28;20049;-56
2023/04/21 09:34:16;;;;;;;28.27;22.75;;;;;;;13.16;100.00;101270.09;5035018;28;20041;-57
2023/04/21 09:36:45;;;;;;;32.08;24.10;;;;;;;13.18;100.00;101280.53;5035064;28;20045;-57
2023/04/21 09:39:14;;;;;;;26.50;22.10;;;;;;;13.31;100.00;101281.38;5032998;28;20132;-56
2023/04/21 09:42:02;;;;;;;27.83;23.35;;;;;;;13.27;100.00;101279.06;5030702;28;20055;-56
2023/04/21 09:44:31;;;;;;;26.90;22.25;;;;;;;13.33;100.00;101279.50;5031209;28;20045;-57
2023/04/21 09:47:17;;;;;;;29.52;23.27;;;;;;;13.23;100.00;101282.88;5030992;28;20061;-56
2023/04/21 09:49:50;;;;;;;29.27;21.95;;;;;;;13.19;100.00;101280.41;5034027;28;20053;-62
2023/04/21 09:52:19;;;;;;;29.05;21.70;;;;;;;13.23;100.00;101289.00;5034727;28;20050;-62
2023/04/21 09:54:51;;;;;;;33.63;23.73;;;;;;;13.41;100.00;101278.97;5035093;28;20049;-61
2023/04/21 09:57:24;;;;;;;28.40;22.85;;;;;;;13.42;100.00;101282.47;5034635;28;20049;-61
2023/04/21 10:00:00;;;;;;;27.92;22.77;;;;;;;13.51;100.00;101273.88;5034764;28;20054;-61
2023/04/21 10:02:34;;;;;;;27.90;22.70;;;;;;;13.63;100.00;101270.38;5034351;28;20056;-61
2023/04/21 10:05:05;;;;;;;28.90;22.52;;;;;;;13.47;100.00;101269.75;5029853;28;20109;-62
2023/04/21 10:07:33;;;;;;;27.52;22.83;;;;;;;13.64;100.00;101263.28;5031712;28;20073;-61
2023/04/21 10:10:08;;;;;;;28.60;22.77;;;;;;;13.82;100.00;101263.75;5032187;28;20164;-61
2023/04/21 10:12:36;;;;;;;29.08;23.27;;;;;;;13.92;100.00;101259.50;5030911;28;20582;-56
2023/04/21 10:15:27;;;;;;;29.40;23.77;;;;;;;14.11;100.00;101256.34;5033590;28;20051;-56
2023/04/21 10:18:11;;;;;;;29.67;23.30;;;;;;;14.33;100.00;101247.66;5031729;28;20053;-57
2023/04/21 10:20:51;;;;;;;27.80;23.02;;;;;;;14.44;100.00;101251.28;5031727;28;20111;-57
2023/04/21 10:23:36;;;;;;;30.13;22.58;;;;;;;14.57;100.00;101259.16;5031399;28;20053;-57
2023/04/21 10:26:09;;;;;;;26.33;21.15;;;;;;;14.72;100.00;101242.16;5030003;28;20049;-56
2023/04/21 10:28:48;;;;;;;29.40;23.55;;;;;;;14.80;100.00;101250.34;5032474;28;20053;-54
2023/04/21 10:31:19;;;;;;;28.65;21.70;;;;;;;14.76;100.00;101253.34;5034345;28;20041;-56
2023/04/21 10:34:20;;;;;;;28.90;21.63;;;;;;;14.94;100.00;101240.50;5030553;28;20128;-55
2023/04/21 10:37:07;;;;;;;29.23;21.98;;;;;;;15.01;100.00;101244.34;5031616;28;20056;-56
2023/04/21 10:39:36;;;;;;;26.20;21.20;;;;;;;14.84;100.00;101251.78;5033956;28;20532;-56
2023/04/21 10:42:23;;;;;;;28.50;21.35;;;;;;;15.01;100.00;101253.16;5033698;28;20566;-56
2023/04/21 10:44:53;;;;;;;29.63;21.85;;;;;;;15.06;100.00;101249.31;5029943;28;20057;-56
2023/04/21 10:47:30;;;;;;;26.05;21.73;;;;;;;15.18;100.00;101235.94;5032084;28;20108;-56
2023/04/21 10:49:59;;;;;;;29.25;22.08;;;;;;;15.04;100.00;101231.72;5033869;28;20057;-56
2023/04/21 10:52:32;;;;;;;25.50;21.08;;;;;;;15.07;100.00;101228.00;5033665;28;20107;-56
2023/04/21 10:55:11;;;;;;;26.98;21.10;;;;;;;15.17;100.00;101228.09;5030558;28;20081;-57
2023/04/21 10:57:43;;;;;;;25.95;21.20;;;;;;;15.31;100.00;101227.88;5031379;28;20088;-56
2023/04/21 11:00:15;;;;;;;27.02;20.35;;;;;;;15.28;100.00;101227.25;5033412;28;20095;-56
2023/04/21 11:02:53;;;;;;;25.33;20.60;;;;;;;15.23;100.00;101222.34;5033558;28;20076;-56
2023/04/21 11:05:33;;;;;;;24.25;20.45;;;;;;;15.13;100.00;101218.72;5033391;28;20060;-57
2023/04/21 11:08:06;;;;;;;27.38;20.38;;;;;;;14.93;100.00;101215.84;5032101;28;20051;-56
2023/04/21 11:10:58;;;;;;;27.20;20.60;;;;;;;14.91;100.00;101215.09;5030398;28;20110;-56
2023/04/21 11:13:32;;;;;;;26.92;21.27;;;;;;;14.88;100.00;101215.34;5022269;28;20063;-56
2023/04/21 11:16:03;;;;;;;25.95;20.90;;;;;;;15.03;100.00;101208.00;5032430;28;20045;-56
2023/04/21 11:18:40;;;;;;;24.77;19.90;;;;;;;15.17;100.00;101217.50;5030133;28;20115;-54
2023/04/21 11:21:14;;;;;;;26.55;20.23;;;;;;;15.09;100.00;101201.38;5030542;28;20497;-56